createdAt,value
2018-02-06T00:00:55.755Z,10.80
2018-02-06T00:03:23.214Z,10.80
2018-02-06T00:05:50.695Z,10.93
2018-02-06T00:08:18.975Z,10.00
2018-02-06T00:10:47.211Z,10.27
2018-02-06T00:13:14.674Z,9.50
2018-02-06T00:15:42.135Z,9.63
2018-02-06T00:18:09.599Z,10.93
2018-02-06T00:20:37.048Z,10.90
2018-02-06T00:23:04.525Z,10.17
2018-02-06T00:25:33.490Z,10.13
2018-02-06T00:28:01.009Z,10.07
2018-02-06T00:30:29.220Z,9.20
2018-02-06T00:32:56.708Z,9.47
2018-02-06T00:35:24.164Z,9.97
2018-02-06T00:37:51.622Z,9.03
2018-02-06T00:40:19.129Z,10.10
2018-02-06T00:42:46.639Z,10.10
2018-02-06T00:45:14.125Z,10.00
2018-02-06T00:47:42.376Z,8.80
2018-02-06T00:50:09.834Z,10.70
2018-02-06T00:52:37.323Z,11.00
2018-02-06T00:55:04.802Z,9.80
2018-02-06T00:57:32.300Z,9.27
2018-02-06T00:59:59.769Z,9.57
2018-02-06T01:02:27.235Z,10.27
2018-02-06T01:04:54.675Z,10.87
2018-02-06T01:07:22.162Z,10.33
2018-02-06T01:09:50.403Z,10.13
2018-02-06T01:12:17.862Z,12.27
2018-02-06T01:14:45.518Z,11.37
2018-02-06T01:17:12.999Z,9.87
2018-02-06T01:19:40.455Z,11.70
2018-02-06T01:22:07.926Z,10.50
2018-02-06T01:24:36.191Z,9.67
2018-02-06T01:27:03.674Z,11.30
2018-02-06T01:29:31.874Z,9.10
2018-02-06T01:31:59.359Z,9.90
2018-02-06T01:34:26.840Z,10.10
2018-02-06T01:36:54.288Z,11.20
2018-02-06T01:39:21.778Z,10.23
2018-02-06T01:41:49.288Z,11.07
2018-02-06T01:44:16.741Z,10.17
2018-02-06T01:46:44.223Z,10.73
2018-02-06T01:49:11.700Z,10.40
2018-02-06T01:51:39.946Z,11.10
2018-02-06T01:54:07.582Z,9.67
2018-02-06T01:56:35.067Z,11.57
2018-02-06T01:59:02.535Z,11.13
2018-02-06T02:01:30.023Z,11.50
2018-02-06T02:03:58.280Z,11.50
2018-02-06T02:06:25.738Z,10.70
2018-02-06T02:08:53.215Z,10.80
2018-02-06T02:11:21.455Z,10.07
2018-02-06T02:13:48.931Z,12.20
2018-02-06T02:16:16.415Z,11.97
2018-02-06T02:18:45.057Z,12.43
2018-02-06T02:21:12.534Z,11.47
2018-02-06T02:23:39.997Z,12.27
2018-02-06T02:26:07.463Z,11.83
2018-02-06T02:28:34.928Z,11.80
2018-02-06T02:31:03.198Z,12.10
2018-02-06T02:33:30.651Z,11.70
2018-02-06T02:35:58.116Z,12.40
2018-02-06T02:38:26.512Z,11.80
2018-02-06T02:40:54.750Z,11.93
2018-02-06T04:39:02.370Z,14.53
2018-02-06T04:41:30.599Z,14.07
2018-02-06T04:43:58.067Z,8.70
2018-02-06T04:46:25.566Z,12.03
2018-02-06T04:48:53.012Z,12.80
2018-02-06T04:51:20.528Z,12.70
2018-02-06T04:53:48.036Z,12.17
2018-02-06T04:56:15.494Z,13.00
2018-02-06T04:58:42.955Z,12.17
2018-02-06T05:01:10.430Z,12.93
2018-02-06T05:03:38.686Z,13.50
2018-02-06T05:06:06.212Z,13.70
2018-02-06T05:08:33.706Z,13.30
2018-02-06T05:11:01.171Z,12.80
2018-02-06T05:13:28.642Z,13.70
2018-02-06T05:15:56.883Z,12.10
2018-02-06T05:18:24.344Z,13.33
2018-02-06T05:20:51.818Z,12.40
2018-02-06T05:23:19.270Z,14.10
2018-02-06T05:25:46.731Z,13.30
2018-02-06T05:28:14.227Z,13.67
2018-02-06T05:30:42.451Z,13.97
2018-02-06T05:33:09.931Z,12.80
2018-02-06T05:35:37.383Z,12.93
2018-02-06T05:38:04.832Z,14.77
2018-02-06T05:40:32.302Z,13.93
2018-02-06T05:42:59.743Z,13.00
2018-02-06T05:45:27.227Z,13.90
2018-02-06T05:47:55.491Z,13.57
2018-02-06T05:50:22.948Z,12.40
2018-02-06T05:59:35.946Z,11.13
2018-02-06T06:02:04.202Z,11.80
2018-02-06T06:04:32.460Z,12.80
2018-02-06T06:06:59.955Z,13.87
2018-02-06T06:09:28.240Z,14.43
2018-02-06T06:11:55.663Z,13.67
2018-02-06T06:14:23.906Z,14.07
2018-02-06T06:16:51.379Z,12.10
2018-02-06T06:19:18.859Z,12.70
2018-02-06T06:21:47.117Z,12.70
2018-02-06T06:24:14.623Z,12.43
2018-02-06T06:26:42.118Z,12.67
2018-02-06T06:29:09.575Z,14.73
2018-02-06T06:31:37.055Z,15.23
2018-02-06T06:34:04.504Z,14.57
2018-02-06T06:36:31.988Z,15.37
2018-02-06T06:38:59.432Z,14.17
2018-02-06T06:41:26.906Z,14.03
2018-02-06T06:43:54.426Z,13.10
2018-02-06T06:46:21.895Z,15.10
2018-02-06T06:48:49.384Z,14.63
2018-02-06T06:51:16.825Z,13.00
2018-02-06T06:53:44.283Z,13.93
2018-02-06T06:56:11.774Z,14.67
2018-02-06T06:58:40.030Z,14.20
2018-02-06T07:01:07.520Z,12.20
2018-02-06T07:03:35.006Z,12.77
2018-02-06T07:06:02.483Z,11.60
2018-02-06T07:08:29.942Z,13.50
2018-02-06T07:10:57.399Z,14.00
2018-02-06T07:13:24.879Z,15.00
2018-02-06T07:15:52.335Z,14.90
2018-02-06T07:18:19.844Z,13.07
2018-02-06T07:20:47.341Z,12.30
2018-02-06T07:23:14.805Z,13.57
2018-02-06T07:25:42.260Z,12.83
2018-02-06T07:28:09.745Z,13.00
2018-02-06T07:30:37.986Z,14.37
2018-02-06T07:33:05.427Z,13.60
2018-02-06T07:35:32.911Z,14.90
2018-02-06T07:38:00.440Z,14.67
2018-02-06T07:40:27.921Z,14.00
2018-02-06T07:42:55.454Z,14.17
2018-02-06T07:45:22.923Z,13.10
2018-02-06T07:47:50.675Z,15.30
2018-02-06T07:50:18.184Z,12.53
2018-02-06T07:52:45.651Z,13.33
2018-02-06T07:55:13.158Z,13.83
2018-02-06T07:57:40.735Z,15.03
2018-02-06T08:00:08.241Z,13.43
2018-02-06T08:02:36.513Z,13.10
2018-02-06T08:05:04.801Z,11.97
2018-02-06T08:07:33.025Z,14.63
2018-02-06T08:10:00.521Z,11.63
2018-02-06T08:12:28.784Z,14.10
2018-02-06T08:14:56.259Z,15.23
2018-02-06T08:17:24.488Z,14.30
2018-02-06T08:19:51.993Z,15.00
2018-02-06T08:22:20.259Z,14.37
2018-02-06T08:24:47.715Z,13.10
2018-02-06T08:27:15.175Z,15.07
2018-02-06T08:29:42.687Z,14.60
2018-02-06T08:32:10.249Z,13.30
2018-02-06T08:34:37.737Z,14.20
2018-02-06T08:37:05.210Z,13.97
2018-02-06T08:39:32.668Z,14.10
2018-02-06T08:42:00.150Z,14.50
2018-02-06T08:44:28.387Z,14.83
2018-02-06T08:46:56.220Z,12.30
2018-02-06T08:49:23.740Z,13.83
2018-02-06T08:51:51.278Z,14.57
2018-02-06T08:54:18.735Z,13.47
2018-02-06T08:56:46.206Z,14.47
2018-02-06T08:59:13.672Z,13.63
2018-02-06T09:01:41.179Z,13.97
2018-02-06T09:04:08.662Z,14.73
2018-02-06T09:06:36.143Z,13.50
2018-02-06T09:09:03.655Z,13.63
2018-02-06T09:11:31.131Z,13.03
2018-02-06T09:13:58.639Z,13.63
2018-02-06T09:16:26.999Z,17.10
2018-02-06T09:18:54.439Z,13.67
2018-02-06T09:21:21.930Z,13.00
2018-02-06T09:23:50.156Z,13.97
2018-02-06T09:26:17.620Z,14.53
2018-02-06T09:28:45.083Z,14.13
2018-02-06T09:31:12.575Z,13.23
2018-02-06T09:33:40.168Z,13.60
2018-02-06T09:36:08.412Z,14.70
2018-02-06T09:38:35.982Z,13.30
2018-02-06T09:41:04.305Z,12.60
2018-02-06T09:43:31.807Z,13.50
2018-02-06T09:45:59.268Z,13.40
2018-02-06T09:48:26.748Z,13.20
2018-02-06T09:50:54.963Z,13.07
2018-02-06T09:53:22.440Z,12.67
2018-02-06T09:55:49.924Z,14.60
2018-02-06T09:58:18.302Z,14.73
2018-02-06T10:00:46.753Z,14.47
2018-02-06T10:03:14.244Z,15.23
2018-02-06T10:05:42.500Z,15.50
2018-02-06T10:08:10.019Z,14.47
2018-02-06T10:10:37.485Z,15.27
2018-02-06T10:13:04.964Z,15.30
2018-02-06T10:15:32.438Z,15.53
2018-02-06T10:18:00.913Z,15.60
2018-02-06T10:20:28.376Z,15.20
2018-02-06T10:22:55.822Z,15.33
2018-02-06T10:25:23.296Z,15.57
2018-02-06T10:27:50.740Z,14.87
2018-02-06T10:30:18.233Z,13.70
2018-02-06T10:32:46.465Z,13.20
2018-02-06T10:35:13.921Z,14.70
2018-02-06T10:37:41.390Z,15.23
2018-02-06T10:40:08.864Z,13.57
2018-02-06T10:42:36.315Z,14.00
2018-02-06T10:45:03.806Z,14.80
2018-02-06T10:47:32.043Z,14.50
2018-02-06T10:49:59.511Z,15.13
2018-02-06T10:52:26.976Z,14.30
2018-02-06T10:54:54.487Z,20.30
2018-02-06T10:57:21.930Z,15.27
2018-02-06T10:59:49.413Z,15.43
2018-02-06T11:02:16.890Z,15.03
2018-02-06T11:04:44.361Z,15.20
2018-02-06T11:07:11.866Z,15.37
2018-02-06T11:09:39.301Z,14.50
2018-02-06T11:12:07.538Z,15.40
2018-02-06T11:14:35.006Z,14.97
2018-02-06T11:17:02.493Z,14.63
2018-02-06T11:19:30.722Z,14.17
2018-02-06T11:21:58.382Z,13.50
2018-02-06T11:24:25.842Z,14.17
2018-02-06T11:26:53.384Z,14.00
2018-02-06T11:29:20.866Z,14.23
2018-02-06T11:31:48.318Z,14.53
2018-02-06T11:34:15.782Z,14.43
2018-02-06T11:36:43.234Z,15.30
2018-02-06T11:39:10.698Z,14.73
2018-02-06T11:41:38.158Z,14.67
2018-02-06T11:44:05.692Z,13.73
2018-02-06T11:46:33.148Z,15.10
2018-02-06T11:49:00.870Z,14.57
2018-02-06T11:51:28.319Z,13.57
2018-02-06T11:53:55.774Z,14.30
2018-02-06T11:56:23.242Z,14.67
2018-02-06T11:58:51.469Z,14.10
2018-02-06T12:01:18.934Z,15.50
2018-02-06T12:03:46.390Z,16.20
2018-02-06T12:06:13.844Z,17.70
2018-02-06T12:08:41.310Z,16.77
2018-02-06T12:11:08.748Z,14.60
2018-02-06T12:13:36.206Z,15.03
2018-02-06T12:16:03.662Z,14.53
2018-02-06T12:18:31.165Z,15.00
2018-02-06T12:20:58.619Z,13.83
2018-02-06T12:23:26.087Z,14.50
2018-02-06T12:25:53.804Z,14.10
2018-02-06T12:28:21.246Z,13.73
2018-02-06T12:30:49.498Z,15.07
2018-02-06T12:33:16.968Z,15.37
2018-02-06T12:35:45.173Z,14.30
2018-02-06T12:38:12.634Z,14.90
2018-02-06T12:40:40.093Z,14.10
2018-02-06T12:43:07.604Z,12.80
2018-02-06T12:45:35.156Z,14.97
2018-02-06T12:48:02.627Z,14.10
2018-02-06T12:50:31.195Z,15.57
2018-02-06T12:52:58.703Z,14.07
2018-02-06T12:55:26.325Z,14.70
2018-02-06T12:57:53.775Z,14.23
2018-02-06T13:00:21.243Z,14.80
2018-02-06T13:02:48.683Z,14.60
2018-02-06T13:05:17.093Z,16.23
2018-02-06T13:07:45.300Z,15.47
2018-02-06T13:10:12.810Z,16.03
2018-02-06T13:12:40.290Z,13.10
2018-02-06T13:15:08.563Z,15.10
2018-02-06T13:17:37.003Z,13.80
2018-02-06T13:20:04.466Z,15.73
2018-02-06T13:22:31.950Z,14.33
2018-02-06T13:24:59.406Z,14.93
2018-02-06T13:27:26.882Z,13.93
2018-02-06T13:29:55.123Z,17.20
2018-02-06T13:32:22.598Z,16.27
2018-02-06T13:34:50.029Z,13.33
2018-02-06T13:37:18.417Z,14.40
2018-02-06T13:39:45.857Z,14.93
2018-02-06T13:42:13.324Z,15.50
2018-02-06T13:44:40.808Z,14.30
2018-02-06T13:47:08.246Z,14.73
2018-02-06T13:49:35.739Z,14.57
2018-02-06T13:52:04.007Z,14.97
2018-02-06T13:54:31.452Z,14.83
2018-02-06T13:56:58.922Z,15.27
2018-02-06T13:59:26.537Z,13.70
2018-02-06T14:01:53.992Z,13.07
2018-02-06T14:04:21.478Z,13.70
2018-02-06T14:06:48.954Z,13.77
2018-02-06T14:09:16.414Z,13.97
2018-02-06T14:11:43.951Z,14.27
2018-02-06T14:14:12.301Z,13.73
2018-02-06T14:16:39.787Z,15.43
2018-02-06T14:19:07.268Z,13.80
2018-02-06T14:21:34.716Z,14.60
2018-02-06T14:24:02.193Z,15.17
2018-02-06T14:26:29.747Z,14.07
2018-02-06T14:28:58.020Z,13.33
2018-02-06T14:31:26.283Z,13.20
2018-02-06T14:33:53.746Z,13.67
2018-02-06T14:36:21.224Z,14.80
2018-02-06T14:38:48.662Z,13.70
2018-02-06T14:41:16.222Z,16.20
2018-02-06T14:43:43.672Z,14.47
2018-02-06T14:46:12.058Z,15.27
2018-02-06T14:48:39.531Z,14.20
2018-02-06T14:51:07.186Z,14.10
2018-02-06T14:53:34.661Z,15.60
2018-02-06T14:56:02.905Z,13.73
2018-02-06T14:58:30.357Z,14.57
2018-02-06T15:00:57.840Z,13.37
2018-02-06T15:03:25.301Z,13.20
2018-02-06T15:05:53.551Z,14.90
2018-02-06T15:08:21.033Z,14.23
2018-02-06T15:10:48.515Z,15.10
2018-02-06T15:13:16.973Z,15.93
2018-02-06T15:15:44.446Z,14.47
2018-02-06T15:18:11.904Z,14.60
2018-02-06T15:20:40.431Z,15.13
2018-02-06T15:23:08.039Z,14.73
2018-02-06T15:25:35.686Z,14.53
2018-02-06T15:28:03.211Z,15.37
2018-02-06T15:30:30.812Z,15.80
2018-02-06T15:32:58.302Z,14.50
2018-02-06T15:35:26.527Z,15.37
2018-02-06T15:37:53.992Z,13.43
2018-02-06T15:40:21.437Z,14.63
2018-02-06T15:42:48.924Z,14.40
2018-02-06T15:45:16.386Z,14.33
2018-02-06T15:47:43.876Z,15.80
2018-02-06T15:50:11.321Z,13.67
2018-02-06T15:52:39.554Z,15.67
2018-02-06T15:55:07.000Z,15.97
2018-02-06T15:57:34.507Z,15.33
2018-02-06T16:00:02.885Z,15.50
2018-02-06T16:02:30.486Z,15.17
2018-02-06T16:04:58.009Z,15.30
2018-02-06T16:07:25.674Z,15.97
2018-02-06T16:09:53.896Z,14.47
2018-02-06T16:12:21.549Z,14.70
2018-02-06T16:14:49.036Z,15.37
2018-02-06T16:17:16.520Z,16.63
2018-02-06T16:19:43.986Z,15.50
2018-02-06T16:22:12.227Z,16.07
2018-02-06T16:24:39.740Z,15.60
2018-02-06T16:27:08.259Z,13.70
2018-02-06T16:29:35.737Z,14.83
2018-02-06T16:32:03.252Z,13.60
2018-02-06T16:34:30.744Z,14.97
2018-02-06T16:36:58.228Z,14.97
2018-02-06T16:39:26.124Z,17.07
2018-02-06T16:41:53.668Z,17.17
2018-02-06T16:44:21.215Z,17.50
2018-02-06T16:46:48.771Z,18.10
2018-02-06T16:49:16.238Z,17.00
2018-02-06T16:51:44.542Z,17.80
2018-02-06T16:54:12.080Z,17.77
2018-02-06T16:56:39.535Z,17.90
2018-02-06T16:59:07.072Z,17.60
2018-02-06T17:01:34.548Z,16.90
2018-02-06T17:04:02.007Z,17.67
2018-02-06T17:06:29.572Z,17.60
2018-02-06T17:08:57.023Z,17.33
2018-02-06T17:11:24.483Z,18.00
2018-02-06T17:13:51.951Z,17.50
2018-02-06T17:16:20.220Z,19.03
2018-02-06T17:18:48.501Z,19.33
2018-02-06T17:21:16.891Z,20.07
2018-02-06T17:23:45.151Z,18.67
2018-02-06T17:26:12.615Z,18.13
2018-02-06T17:28:40.178Z,16.67
2018-02-06T17:31:08.421Z,17.40
2018-02-06T17:33:35.903Z,17.80
2018-02-06T17:36:03.467Z,18.23
2018-02-06T17:38:30.918Z,17.80
2018-02-06T17:40:58.367Z,18.33
2018-02-06T17:43:25.906Z,17.20
2018-02-06T17:45:53.652Z,16.20
2018-02-06T17:48:21.186Z,15.90
2018-02-06T17:50:49.418Z,17.87
2018-02-06T17:53:16.899Z,17.20
2018-02-06T17:55:44.374Z,16.33
2018-02-06T17:58:11.998Z,16.37
2018-02-06T18:00:39.663Z,17.07
2018-02-06T18:03:07.651Z,16.47
2018-02-06T18:05:36.624Z,15.93
2018-02-06T18:08:04.083Z,17.67
2018-02-06T18:10:31.571Z,15.03
2018-02-06T18:12:59.821Z,16.80
2018-02-06T18:15:27.576Z,17.40
2018-02-06T18:17:55.252Z,15.93
2018-02-06T18:20:23.311Z,16.80
2018-02-06T18:22:50.820Z,16.47
2018-02-06T18:25:19.171Z,15.67
2018-02-06T18:27:47.640Z,15.43
2018-02-06T18:30:15.276Z,16.13
2018-02-06T18:32:42.806Z,16.10
2018-02-06T18:35:11.121Z,16.30
2018-02-06T18:37:38.580Z,15.70
2018-02-06T18:40:06.238Z,15.50
2018-02-06T18:42:34.741Z,16.67
2018-02-06T18:45:02.228Z,16.47
2018-02-06T18:47:29.675Z,16.50
2018-02-06T18:49:57.164Z,16.50
2018-02-06T18:52:25.579Z,16.67
2018-02-06T18:54:53.241Z,16.77
2018-02-06T18:57:20.719Z,16.20
2018-02-06T18:59:48.206Z,18.07
2018-02-06T19:02:16.645Z,16.03
2018-02-06T19:04:44.141Z,17.50
2018-02-06T19:07:12.369Z,17.53
2018-02-06T19:09:39.897Z,16.40
2018-02-06T19:12:07.870Z,16.33
2018-02-06T19:14:35.448Z,16.37
2018-02-06T19:17:02.918Z,16.37
2018-02-06T19:19:30.391Z,15.43
2018-02-06T19:21:58.112Z,17.90
2018-02-06T19:24:26.409Z,19.67
2018-02-06T19:26:53.928Z,17.60
2018-02-06T19:33:56.230Z,16.90
2018-02-06T19:36:23.842Z,16.43
2018-02-06T19:38:51.355Z,17.87
2018-02-06T19:41:19.775Z,16.57
2018-02-06T19:43:47.671Z,16.83
2018-02-06T19:46:15.267Z,17.10
2018-02-06T19:48:43.490Z,17.40
2018-02-06T19:51:11.531Z,17.57
2018-02-06T19:53:39.008Z,18.00
2018-02-06T19:56:06.882Z,16.77
2018-02-06T19:58:34.349Z,18.30
2018-02-06T20:01:02.350Z,16.70
2018-02-06T20:03:29.819Z,17.20
2018-02-06T20:05:58.147Z,16.90
2018-02-06T20:08:25.733Z,16.67
2018-02-06T20:10:53.523Z,17.30
2018-02-06T20:13:21.792Z,17.30
2018-02-06T20:15:51.376Z,17.27
2018-02-06T20:18:19.731Z,18.80
2018-02-06T20:20:48.235Z,18.37
2018-02-06T20:23:15.981Z,18.20
2018-02-06T20:25:43.455Z,18.60
2018-02-06T20:28:10.943Z,18.83
2018-02-06T20:30:38.437Z,19.40
2018-02-06T20:33:06.424Z,19.53
2018-02-06T20:35:34.740Z,19.20
2018-02-06T20:38:02.239Z,20.27
2018-02-06T20:40:30.476Z,20.00
2018-02-06T20:42:58.165Z,19.53
2018-02-06T20:45:26.456Z,19.07
2018-02-06T20:47:55.176Z,19.83
2018-02-06T20:50:22.655Z,18.87
2018-02-06T20:52:50.653Z,20.00
2018-02-06T20:55:18.178Z,18.90
2018-02-06T20:57:45.695Z,19.37
2018-02-06T21:00:13.299Z,19.40
2018-02-06T21:02:40.922Z,17.90
2018-02-06T21:05:08.566Z,18.67
2018-02-06T21:07:36.876Z,19.20
2018-02-06T21:10:04.339Z,18.77
2018-02-06T21:12:32.123Z,20.23
2018-02-06T21:14:59.641Z,18.30
2018-02-06T21:17:27.895Z,19.03
2018-02-06T21:19:56.150Z,18.77
2018-02-06T21:22:23.753Z,21.47
2018-02-06T21:24:52.164Z,21.03
2018-02-06T21:27:19.715Z,19.10
2018-02-06T21:29:47.459Z,21.40
2018-02-06T21:32:15.863Z,20.30
2018-02-06T21:34:43.631Z,28.63
2018-02-06T21:37:11.095Z,18.63
2018-02-06T21:39:38.796Z,21.00
2018-02-06T21:42:06.616Z,18.50
2018-02-06T21:44:34.111Z,20.30
2018-02-06T21:47:01.578Z,19.20
2018-02-06T21:49:30.051Z,18.77
2018-02-06T21:51:57.827Z,20.17
2018-02-06T21:54:25.389Z,18.73
2018-02-06T21:56:53.050Z,20.47
2018-02-06T21:59:20.527Z,17.70
2018-02-06T22:01:48.782Z,18.83
2018-02-06T22:04:16.253Z,20.10
2018-02-06T22:06:44.526Z,17.50
2018-02-06T22:09:12.010Z,18.37
2018-02-06T22:11:39.833Z,18.30
2018-02-06T22:14:07.376Z,18.77
2018-02-06T22:16:34.934Z,18.60
2018-02-06T22:19:02.583Z,17.93
2018-02-06T22:21:30.491Z,20.10
2018-02-06T22:23:57.971Z,19.60
2018-02-06T22:26:26.260Z,18.80
2018-02-06T22:28:54.508Z,19.37
2018-02-06T22:31:22.783Z,18.70
2018-02-06T22:33:51.329Z,19.73
2018-02-06T22:36:18.793Z,18.33
2018-02-06T22:38:47.127Z,17.70
2018-02-06T22:41:15.371Z,18.37
2018-02-06T22:43:42.893Z,18.50
2018-02-06T22:46:10.723Z,18.47
2018-02-06T22:48:38.952Z,19.57
2018-02-06T22:51:06.455Z,19.63
2018-02-06T22:53:34.839Z,17.90
2018-02-06T22:56:02.405Z,18.00
2018-02-06T22:58:30.870Z,18.30
2018-02-06T23:00:58.392Z,18.93
2018-02-06T23:03:25.959Z,18.30
2018-02-06T23:05:53.471Z,19.10
2018-02-06T23:08:21.055Z,19.43
2018-02-06T23:10:48.595Z,18.60
2018-02-06T23:13:16.090Z,20.00
2018-02-06T23:15:43.689Z,18.33
2018-02-06T23:18:11.463Z,19.10
2018-02-06T23:20:39.753Z,18.83
2018-02-06T23:23:08.271Z,19.60
2018-02-06T23:25:35.735Z,19.07
2018-02-06T23:28:03.225Z,19.70
2018-02-06T23:30:30.776Z,19.40
2018-02-06T23:32:58.294Z,20.60
2018-02-06T23:35:25.823Z,20.03
2018-02-06T23:37:54.069Z,20.03
2018-02-06T23:40:21.647Z,19.43
2018-02-06T23:42:49.120Z,18.37
2018-02-06T23:45:17.506Z,19.37
2018-02-06T23:47:45.779Z,19.17
2018-02-06T23:50:14.041Z,19.30
2018-02-06T23:52:41.498Z,19.27
2018-02-06T23:55:10.307Z,19.70
2018-02-06T23:57:37.803Z,18.93
